• Join FlightAware (Why Join?)
  • Login
  • US Flag 
04:17AM EDT


 

Airport Tracker/Info


-or-


 

Live Flight TrackerFlight Track Log ✈ ASQ2542 ✈ 15-Apr-2013 ✈ KCRP - KDFW

Flight Track Log - Related Links

Times and Time Zones

All times are in EDT time to prevent confusion due to time zone crossing. See the ASQ2542 flight status page for this flight to view local times or setup timezone preferences in your user account.

Time Position Orientation Groundspeed Altitude Reporting Facility
EDT Latitude Longitude Course Direction KTS MPH feet Rate Location/Type
02:17PM 27.7539 -97.4933 245° Southwest 137 158 900  Level Houston Center
02:17PM 27.7406 -97.5261 245° Southwest 172 198 2,500 1,800 Climbing Houston Center
02:18PM 27.7675 -97.5586 313° West 234 269 3,600 1,860 Climbing Houston Center
02:18PM 27.7836 -97.5744 319° Northwest 232 267 4,400 2,760 Climbing Houston Center
02:19PM 27.8181 -97.6111 317° Northwest 247 284 6,500 2,580 Climbing Houston Center
02:20PM 27.8664 -97.6625 317° Northwest 244 281 9,100 2,340 Climbing Houston Center
02:21PM 27.9183 -97.7122 320° Northwest 243 280 11,400 1,860 Climbing Houston Center
02:22PM 27.9978 -97.7703 327° Northwest 264 304 13,000 1,680 Climbing Houston Center
02:23PM 28.0664 -97.8308 322° Northwest 296 341 14,900 1,800 Climbing Houston Center
02:24PM 28.1061 -97.9167 298° West 305 351 16,800 1,800 Climbing Houston Center
02:25PM 28.1469 -98.0011 299° West 306 352 18,700 1,440 Climbing Houston Center
02:26PM 28.2386 -98.0431 338° Northwest 343 395 19,800 1,020 Climbing Houston Center
02:27PM 28.3522 -98.0881 341° North 363 418 20,900 960 Climbing Houston Center
02:28PM 28.4572 -98.1300 341° North 375 432 21,800 660 Climbing Houston Center
02:29PM 28.5669 -98.1658 344° North 402 463 22,300 480 Climbing Houston Center
02:31PM 28.6825 -98.1972 347° North 421 484 22,900 660 Climbing Houston Center
02:32PM 28.8086 -98.2328 346° North 430 495 23,700 720 Climbing Houston Center
02:33PM 28.9350 -98.2669 347° North 432 497 24,500 720 Climbing Houston Center
02:34PM 29.0528 -98.2986 347° North 434 499 25,200 660 Climbing Houston Center
02:35PM 29.1825 -98.3119 355° North 443 510 25,900 540 Climbing Houston Center
02:36PM 29.3086 -98.3053 North 451 519 26,400 480 Climbing Houston Center
02:37PM 29.4436 -98.2972 North 452 520 27,000 480 Climbing Houston Center
02:38PM 29.5697 -98.2897 North 456 525 27,500 480 Climbing Houston Center
02:39PM 29.7056 -98.2828 North 458 527 28,000 480 Climbing Houston Center
02:40PM 29.8317 -98.2761 North 455 524 28,500 480 Climbing Houston Center
02:41PM 29.9669 -98.2681 North 453 521 29,000 240 Climbing Houston Center
02:42PM 30.0942 -98.2611 North 459 528 29,000  Level Houston Center
02:43PM 30.2319 -98.2533 North 459 528 29,000  Level Houston Center
02:44PM 30.3492 -98.2481 North 467 537 29,000  Level Houston Center
02:45PM 30.4817 -98.2408 North 470 541 29,000  Level Houston Center
02:46PM 30.6153 -98.2336 North 472 543 29,000  Level Houston Center
02:47PM 30.7700 -98.2256 North 471 542 29,000  Level Houston Center
02:48PM 30.9056 -98.2169 North 476 548 29,000  Level Houston Center
02:49PM 30.9914 -98.2131 North 471 542 29,000  Level Fort Worth Center
02:50PM 31.1106 -98.2042 North 471 542 29,000  Level Fort Worth Center
02:51PM 31.2442 -98.2006 North 476 548 29,000  Level Fort Worth Center
02:52PM 31.3736 -98.1919 North 476 548 29,000  Level Fort Worth Center
02:53PM 31.5011 -98.1833 North 471 542 29,000 -360 Level Fort Worth Center
02:54PM 31.6372 -98.1258 20° North 465 535 28,300 -1,440 Descending Fort Worth Center
02:55PM 31.7503 -98.0436 32° Northeast 459 528 26,200 -2,100 Descending Fort Worth Center
02:56PM 31.8633 -97.9614 32° Northeast 465 535 24,200 -2,100 Descending Fort Worth Center
02:57PM 31.9639 -97.8836 33° Northeast 452 520 22,000 -2,040 Descending Fort Worth Center
02:58PM 32.0539 -97.8178 32° Northeast 428 493 20,200 -1,800 Descending Fort Worth Center
02:59PM 32.1608 -97.7397 32° Northeast 411 473 18,500 -1,920 Descending Fort Worth Center
03:00PM 32.2422 -97.6786 32° Northeast 403 464 16,400 -2,400 Descending Fort Worth Center
03:01PM 32.3447 -97.6028 32° Northeast 398 458 13,800 -2,280 Descending Fort Worth Center
03:02PM 32.4242 -97.5414 33° Northeast 386 444 11,900 -1,440 Descending Fort Worth Center
03:03PM 32.5119 -97.4553 40° Northeast 375 432 11,000 -480 Descending Fort Worth Center
03:04PM 32.5767 -97.3789 45° Northeast 362 417 11,000  Level Fort Worth Center
03:05PM 32.6558 -97.2850 45° Northeast 362 417 11,000  Level Fort Worth Center
03:06PM 32.7100 -97.2183 46° Northeast 330 380 11,000  Level Fort Worth Center
03:07PM 32.7767 -97.1711 31° Northeast 280 322 11,000 -660 Level Fort Worth Center
03:08PM 32.8497 -97.1686 North 263 303 9,700 -1,500 Descending Fort Worth Center
03:09PM 32.9250 -97.1658 North 263 303 8,100 -1,500 Descending Fort Worth Center
03:10PM 33.0022 -97.1658 360° North 268 308 6,800 -1,380 Descending Fort Worth Center
03:11PM 33.0753 -97.1481 12° North 254 292 5,400 -1,320 Descending Fort Worth Center
03:12PM 33.0833 -97.0833 82° East 227 261 4,300 -1,080 Descending Dallas / Fort Worth TRACON
03:13PM 33.0667 -97.0500 121° Southeast 155 178 3,400 -900 Descending Dallas / Fort Worth TRACON
03:14PM 33.0167 -97.0500 180° South 159 183 2,600 -780 Descending Dallas / Fort Worth TRACON
03:15PM 32.9833 -97.0500 180° South 138 159 1,900 -720 Descending Dallas / Fort Worth TRACON
03:16PM 32.9500 -97.0500 180° South 124 143 1,300 -600 Descending Dallas / Fort Worth TRACON